Lakeport, CA (95453)

3:23 PM PDT on June 24, 2017 (GMT -0700)
LisaLakeside | | Change Station
Active Advisory: Heat Advisory

Elev 1332 ft 39.03 °N, 122.91 °W | Updated 18 minutes ago

Clear
Clear
104.2 °F
Feels Like 106 °F
N
4.7
Wind Variable Wind from SSW

Today
High -- | Low -- °F
--% Chance of Precip.
Yesterday
High -- | Low -- °F
Precip. -- in
Pressure 29.83 in
Visibility 10.0 miles
Clouds Clear
Heat Index 106 °F
Dew Point 61 °F
Humidity 25%
Rainfall 0.00 in
Snow Depth Not available.
5:47 AM 8:41 PM
New Moon, 1% visible
METAR KUKI 242156Z AUTO VRB04KT 10SM CLR 36/17 A2986 RMK AO2 SLP101 T03560167
Pressure 29.83 in
Visibility 10.0 miles
Clouds Clear
Heat Index 106 °F
Dew Point 61 °F
Humidity 25%
Rainfall 0.00 in
Snow Depth Not available.
5:47 AM 8:41 PM
New Moon, 1% visible
METAR KUKI 242156Z AUTO VRB04KT 10SM CLR 36/17 A2986 RMK AO2 SLP101 T03560167

Get Your Daily Forecast Email!

Thanks for signing up!

Be on the lookout for a verification email in your inbox.

You'll start receiving severe weather alerts in your inbox..

×

10-Day Weather Forecast

Almanac

Astronomy

Jun. 24, 2017 Rise Set
Actual Time
Civil Twilight
Nautical Twilight
Astronomical Twilight
Moon
Length of Visible Light
Length of Day
Tomorrow will be .
, % of the Moon is Illuminated

Today's Extremes

State Highs State Lows

Community

WunderPhotos

Category 6

Welcome to Category 6. This is the collective home for Weather Underground's featured writeups by Dr. Jeff Masters (right), Bob Henson (left), Chris Burt, and other regular contributors.

Nearby

Air Quality

  Air Quality AQ Index Pollutant
Not available.

Snow Depth

Station Depth Elevation

Earthquake Activity

City Distance Mag. Time & Date
Minimum magnitude displayed is 2.5.

Coastal Water Temperatures

Place Temperature

Stations

Nearby Weather Stations

Station Location Temp. Windchill Dew Point Humidity Wind Precip. Elev Updated Type
                   

Watches & Warnings

Heat Advisory
Issued: 2:13 PM PDT Jun. 24, 2017 – National Weather Service

... Heat advisory remains in effect until 11 PM PDT this evening...

* temperature... foothill temperatures well into the 90s to 105
degrees today with very warm temperatures in the mountains with
a slow cool down tonight.

* Impacts... long outdoor exposure will increase chances for heat
related illness, especially for sensitive groups and people
without access to ac. Heat stress possible for livestock with
limited relief from the heat overnight. Area waterways running
very cold and fast, increasing risk for hypothermia and water
rescues.

Precautionary/preparedness actions...

A heat advisory means that a period of hot temperatures is
expected. Very hot temperatures can create a situation in which
heat illness is possible. Drink plenty of fluids, stay in an air-
conditioned room, stay out of the sun, and check up on relatives
and neighbors.


Interact with US via social media
www.Facebook.Com/NWS.Sacramento
www.Twitter.Com/nwssacramento

Jclapp